createdAt,value
2018-07-10T00:03:18.572Z,17.38
2018-07-10T00:06:10.693Z,17.26
2018-07-10T00:10:10.366Z,17.46
2018-07-10T00:12:38.999Z,16.99
2018-07-10T00:15:07.557Z,16.93
2018-07-10T00:17:36.393Z,17.08
2018-07-10T00:20:04.947Z,17.25
2018-07-10T00:22:33.686Z,17.16
2018-07-10T00:25:02.117Z,17.29
2018-07-10T00:27:30.928Z,17.24
2018-07-10T00:29:59.435Z,17.36
2018-07-10T00:32:27.854Z,17.25
2018-07-10T00:34:56.669Z,17.29
2018-07-10T00:37:25.545Z,17.49
2018-07-10T00:39:54.338Z,17.63
2018-07-10T00:42:23.000Z,17.53
2018-07-10T00:44:51.392Z,17.72
2018-07-10T00:47:19.857Z,17.59
2018-07-10T00:49:48.762Z,17.31
2018-07-10T00:52:29.661Z,17.24
2018-07-10T00:54:58.802Z,17.26
2018-07-10T00:57:27.156Z,17.13
2018-07-10T00:59:55.753Z,17.30
2018-07-10T01:02:24.323Z,17.54
2018-07-10T01:04:52.864Z,17.43
2018-07-10T01:07:21.781Z,17.32
2018-07-10T01:09:50.245Z,17.24
2018-07-10T01:12:18.860Z,17.33
2018-07-10T01:14:47.438Z,17.36
2018-07-10T01:17:15.966Z,17.26
2018-07-10T01:19:44.415Z,17.39
2018-07-10T01:22:13.357Z,17.41
2018-07-10T01:24:41.881Z,17.52
2018-07-10T01:27:10.841Z,17.58
2018-07-10T01:29:44.896Z,17.58
2018-07-10T01:32:13.568Z,17.63
2018-07-10T01:34:42.195Z,17.54
2018-07-10T01:37:10.812Z,17.50
2018-07-10T01:39:39.708Z,17.45
2018-07-10T01:42:08.253Z,17.48
2018-07-10T01:44:36.667Z,17.51
2018-07-10T01:47:05.243Z,17.71
2018-07-10T01:49:33.997Z,17.52
2018-07-10T01:52:02.512Z,17.50
2018-07-10T01:54:31.207Z,17.44
2018-07-10T01:56:59.705Z,17.47
2018-07-10T01:59:28.730Z,17.50
2018-07-10T02:01:57.749Z,17.56
2018-07-10T02:04:26.368Z,17.44
2018-07-10T02:06:55.025Z,17.52
2018-07-10T02:09:23.631Z,17.50
2018-07-10T02:11:52.212Z,17.60
2018-07-10T02:14:20.700Z,17.37
2018-07-10T02:16:49.685Z,17.21
2018-07-10T02:19:18.651Z,17.11
2018-07-10T02:21:47.423Z,17.13
2018-07-10T02:24:21.549Z,17.08
2018-07-10T02:26:50.447Z,17.23
2018-07-10T02:29:19.343Z,17.31
2018-07-10T02:31:48.824Z,17.39
2018-07-10T02:34:17.502Z,17.38
2018-07-10T02:36:46.577Z,17.38
2018-07-10T02:39:16.867Z,17.40
2018-07-10T02:41:45.533Z,17.40
2018-07-10T02:44:14.029Z,17.29
2018-07-10T02:46:42.661Z,17.35
2018-07-10T02:49:21.363Z,17.37
2018-07-10T02:51:56.284Z,17.35
2018-07-10T02:54:27.438Z,17.30
2018-07-10T02:56:57.377Z,17.32
2018-07-10T02:59:38.273Z,17.34
2018-07-10T03:02:28.657Z,17.35
2018-07-10T03:05:00.923Z,17.27
2018-07-10T03:07:31.377Z,17.26
2018-07-10T03:10:01.498Z,17.27
2018-07-10T03:12:32.465Z,17.26
2018-07-10T03:15:11.489Z,17.23
2018-07-10T03:17:40.405Z,17.29
2018-07-10T03:20:09.373Z,17.34
2018-07-10T03:22:38.080Z,17.28
2018-07-10T03:25:07.999Z,17.33
2018-07-10T03:27:36.823Z,17.27
2018-07-10T03:30:05.688Z,17.40
2018-07-10T03:32:34.192Z,17.39
2018-07-10T03:35:02.657Z,17.35
2018-07-10T03:37:31.465Z,17.27
2018-07-10T03:39:59.976Z,17.35
2018-07-10T03:42:28.885Z,17.36
2018-07-10T03:44:57.448Z,17.29
2018-07-10T03:47:27.270Z,17.25
2018-07-10T03:49:55.694Z,17.33
2018-07-10T03:52:32.304Z,17.28
2018-07-10T03:55:13.930Z,17.27
2018-07-10T03:57:42.564Z,17.31
2018-07-10T04:00:13.212Z,17.44
2018-07-10T04:02:48.074Z,17.31
2018-07-10T04:05:18.434Z,17.37
2018-07-10T04:07:51.665Z,17.29
2018-07-10T04:10:34.046Z,17.42
2018-07-10T04:13:15.801Z,17.30
2018-07-10T04:15:47.593Z,17.34
2018-07-10T04:18:20.505Z,17.29
2018-07-10T04:21:05.518Z,17.39
2018-07-10T04:23:37.975Z,17.38
2018-07-10T04:26:17.072Z,17.42
2018-07-10T04:28:58.081Z,17.34
2018-07-10T04:31:35.012Z,17.41
2018-07-10T04:34:03.804Z,17.31
2018-07-10T04:36:32.457Z,17.35
2018-07-10T04:39:01.137Z,17.58
2018-07-10T04:41:31.901Z,17.77
2018-07-10T04:44:10.688Z,17.82
2018-07-10T04:46:49.428Z,17.80
2018-07-10T04:49:44.113Z,17.55
2018-07-10T04:52:27.721Z,17.65
2018-07-10T04:55:06.711Z,17.76
2018-07-10T04:58:01.056Z,17.73
2018-07-10T05:00:30.933Z,17.81
2018-07-10T05:03:00.731Z,17.79
2018-07-10T05:05:32.200Z,17.76
2018-07-10T05:08:04.029Z,17.76
2018-07-10T05:10:34.349Z,17.67
2018-07-10T05:13:05.252Z,17.74
2018-07-10T05:15:34.868Z,17.71
2018-07-10T05:18:08.025Z,17.69
2018-07-10T05:20:37.630Z,17.65
2018-07-10T05:23:06.527Z,17.66
2018-07-10T05:25:37.683Z,17.69
2018-07-10T05:28:06.283Z,17.68
2018-07-10T05:30:36.709Z,17.67
2018-07-10T05:33:05.873Z,17.69
2018-07-10T05:35:34.451Z,17.73
2018-07-10T05:38:05.342Z,17.69
2018-07-10T05:40:34.352Z,17.79
2018-07-10T05:43:08.369Z,17.71
2018-07-10T05:45:38.840Z,17.78
2018-07-10T05:48:08.100Z,17.85
2018-07-10T05:50:38.737Z,17.92
2018-07-10T05:53:10.570Z,18.00
2018-07-10T05:55:48.564Z,18.15
2018-07-10T05:58:17.338Z,18.25
2018-07-10T06:00:46.038Z,18.30
2018-07-10T06:03:14.942Z,18.50
2018-07-10T06:05:43.761Z,18.50
2018-07-10T06:08:14.001Z,18.50
2018-07-10T06:10:43.630Z,18.37
2018-07-10T06:13:12.499Z,18.46
2018-07-10T06:15:41.105Z,18.51
2018-07-10T06:18:09.505Z,18.49
2018-07-10T06:20:40.360Z,18.34
2018-07-10T06:23:08.936Z,18.43
2018-07-10T06:25:37.700Z,18.43
2018-07-10T06:28:11.724Z,18.45
2018-07-10T06:30:43.804Z,18.30
2018-07-10T06:33:21.048Z,17.93
2018-07-10T06:36:04.985Z,18.02
2018-07-10T06:38:37.137Z,18.07
2018-07-10T06:41:05.986Z,18.08
2018-07-10T06:43:49.301Z,18.21
2018-07-10T06:46:26.617Z,18.21
2018-07-10T06:48:59.420Z,17.83
2018-07-10T06:51:28.238Z,17.94
2018-07-10T06:54:01.717Z,18.16
2018-07-10T06:56:30.400Z,18.17
2018-07-10T06:58:58.923Z,18.11
2018-07-10T07:01:27.266Z,18.02
2018-07-10T07:04:00.590Z,17.97
2018-07-10T07:06:30.024Z,18.17
2018-07-10T07:08:58.689Z,18.22
2018-07-10T07:11:27.229Z,18.19
2018-07-10T07:13:56.463Z,18.19
2018-07-10T07:16:25.289Z,18.08
2018-07-10T07:18:54.248Z,18.04
2018-07-10T07:21:22.703Z,17.98
2018-07-10T07:23:51.306Z,18.13
2018-07-10T07:26:19.931Z,18.21
2018-07-10T07:28:49.578Z,18.17
2018-07-10T07:31:18.678Z,18.30
2018-07-10T07:33:47.353Z,18.38
2018-07-10T07:36:15.880Z,18.49
2018-07-10T07:38:44.352Z,18.48
2018-07-10T07:41:12.788Z,18.50
2018-07-10T07:43:41.424Z,18.64
2018-07-10T07:46:09.949Z,18.89
2018-07-10T07:48:38.530Z,18.88
2018-07-10T07:51:07.147Z,18.92
2018-07-10T07:53:36.096Z,18.76
2018-07-10T07:56:05.484Z,18.74
2018-07-10T07:58:34.717Z,18.71
2018-07-10T08:01:03.413Z,18.62
2018-07-10T08:03:32.340Z,18.53
2018-07-10T08:06:00.972Z,18.39
2018-07-10T08:08:30.057Z,18.33
2018-07-10T08:10:58.723Z,18.26
2018-07-10T08:13:27.393Z,18.33
2018-07-10T08:15:56.001Z,18.41
2018-07-10T08:18:24.639Z,18.28
2018-07-10T08:20:53.325Z,18.47
2018-07-10T08:23:21.975Z,18.60
2018-07-10T08:25:50.704Z,18.54
2018-07-10T08:28:19.768Z,18.53
2018-07-10T08:30:48.749Z,18.49
2018-07-10T08:33:17.771Z,18.45
2018-07-10T08:35:46.354Z,18.49
2018-07-10T08:38:37.560Z,18.44
2018-07-10T08:41:07.069Z,18.54
2018-07-10T08:43:35.602Z,18.31
2018-07-10T08:46:04.187Z,18.28
2018-07-10T08:48:32.599Z,18.24
2018-07-10T08:51:01.620Z,18.07
2018-07-10T08:53:30.353Z,18.04
2018-07-10T08:55:59.301Z,18.02
2018-07-10T08:58:28.102Z,18.00
2018-07-10T09:00:56.918Z,18.06
2018-07-10T09:03:25.333Z,18.08
2018-07-10T09:05:53.932Z,18.17
2018-07-10T09:08:22.509Z,18.00
2018-07-10T09:10:51.206Z,18.04
2018-07-10T09:13:20.253Z,18.17
2018-07-10T09:15:49.003Z,18.28
2018-07-10T09:18:17.991Z,18.30
2018-07-10T09:20:50.510Z,18.31
2018-07-10T09:23:20.193Z,18.39
2018-07-10T09:25:54.268Z,18.37
2018-07-10T09:28:24.007Z,18.19
2018-07-10T09:30:52.821Z,18.18
2018-07-10T09:33:21.496Z,18.38
2018-07-10T09:35:50.059Z,18.40
2018-07-10T09:38:18.608Z,18.43
2018-07-10T09:40:47.427Z,18.34
2018-07-10T09:43:16.317Z,18.23
2018-07-10T09:45:45.352Z,18.37
2018-07-10T09:48:14.130Z,18.47
2018-07-10T09:53:03.053Z,18.36
2018-07-10T09:55:32.325Z,18.45
2018-07-10T09:58:01.272Z,18.33
2018-07-10T10:00:37.010Z,18.55
2018-07-10T10:03:05.696Z,18.60
2018-07-10T10:05:39.469Z,18.66
2018-07-10T10:08:08.529Z,18.69
2018-07-10T10:10:38.332Z,18.81
2018-07-10T10:13:07.613Z,18.87
2018-07-10T10:15:36.939Z,18.99
2018-07-10T10:18:08.054Z,19.01
2018-07-10T10:20:38.496Z,19.03
2018-07-10T10:23:08.283Z,18.90
2018-07-10T10:25:39.285Z,19.03
2018-07-10T10:28:09.632Z,19.02
2018-07-10T10:30:41.067Z,19.00
2018-07-10T10:33:10.309Z,19.04
2018-07-10T10:35:39.463Z,19.11
2018-07-10T10:38:08.093Z,19.08
2018-07-10T10:40:38.375Z,19.09
2018-07-10T10:43:10.166Z,19.15
2018-07-10T10:45:43.185Z,19.12
2018-07-10T10:48:13.809Z,19.07
2018-07-10T10:50:48.890Z,19.12
2018-07-10T10:53:19.158Z,19.27
2018-07-10T10:55:47.999Z,19.24
2018-07-10T10:58:17.659Z,19.19
2018-07-10T11:00:46.444Z,19.20
2018-07-10T11:03:15.239Z,19.16
2018-07-10T11:05:44.903Z,19.20
2018-07-10T11:08:14.143Z,19.41
2018-07-10T11:10:44.193Z,19.55
2018-07-10T11:13:15.915Z,19.55
2018-07-10T11:15:47.377Z,19.46
2018-07-10T11:20:30.666Z,19.59
2018-07-10T11:23:06.368Z,19.52
2018-07-10T11:25:42.240Z,19.62
2018-07-10T11:28:12.868Z,19.46
2018-07-10T11:30:42.011Z,19.34
2018-07-10T11:33:11.166Z,19.23
2018-07-10T11:35:39.834Z,19.20
2018-07-10T11:38:12.483Z,19.17
2018-07-10T11:40:44.924Z,19.12
2018-07-10T11:43:13.853Z,19.00
2018-07-10T11:45:42.625Z,19.04
2018-07-10T11:48:11.285Z,19.15
2018-07-10T11:50:40.123Z,19.16
2018-07-10T11:53:08.681Z,18.97
2018-07-10T11:55:37.373Z,18.91
2018-07-10T11:58:07.556Z,18.81
2018-07-10T12:00:37.143Z,18.88
2018-07-10T12:03:06.855Z,18.88
2018-07-10T12:05:38.655Z,18.89
2018-07-10T12:08:07.688Z,18.96
2018-07-10T12:10:37.271Z,19.11
2018-07-10T12:13:06.267Z,19.08
2018-07-10T12:15:35.113Z,19.12
2018-07-10T12:18:03.929Z,19.26
2018-07-10T12:20:39.904Z,19.46
2018-07-10T12:23:10.899Z,19.54
2018-07-10T12:25:43.450Z,19.50
2018-07-10T12:28:13.568Z,19.49
2018-07-10T12:30:42.480Z,19.56
2018-07-10T12:33:11.150Z,19.70
2018-07-10T12:35:39.599Z,19.86
2018-07-10T12:38:08.149Z,20.11
2018-07-10T12:40:36.597Z,20.58
2018-07-10T12:43:05.541Z,20.68
2018-07-10T12:45:34.102Z,20.77
2018-07-10T12:48:03.427Z,20.81
2018-07-10T12:50:32.205Z,20.69
2018-07-10T12:53:01.016Z,20.42
2018-07-10T12:55:29.665Z,20.30
2018-07-10T12:57:59.216Z,20.39
2018-07-10T13:00:30.749Z,20.73
2018-07-10T13:03:01.229Z,20.96
2018-07-10T13:05:37.197Z,20.78
2018-07-10T13:08:05.881Z,20.96
2018-07-10T13:10:34.832Z,21.23
2018-07-10T13:13:03.580Z,21.15
2018-07-10T13:15:32.300Z,21.14
2018-07-10T13:18:01.134Z,21.35
2018-07-10T13:20:30.069Z,21.74
2018-07-10T13:22:58.648Z,22.08
2018-07-10T13:25:27.454Z,22.77
2018-07-10T13:27:56.356Z,23.50
2018-07-10T13:30:25.365Z,23.70
2018-07-10T13:32:54.230Z,23.44
2018-07-10T13:35:22.837Z,23.34
2018-07-10T13:37:51.638Z,23.37
2018-07-10T13:40:20.323Z,23.24
2018-07-10T13:42:59.429Z,22.98
2018-07-10T13:45:29.817Z,22.71
2018-07-10T13:48:07.572Z,22.71
2018-07-10T13:50:36.695Z,22.63
2018-07-10T13:53:05.554Z,22.79
2018-07-10T13:55:34.240Z,22.53
2018-07-10T13:58:10.795Z,22.42
2018-07-10T14:00:43.639Z,22.13
2018-07-10T14:03:12.248Z,22.07
2018-07-10T14:05:41.392Z,21.95
2018-07-10T14:08:09.994Z,22.11
2018-07-10T14:10:39.881Z,22.34
2018-07-10T14:13:08.688Z,22.45
2018-07-10T14:15:37.425Z,22.61
2018-07-10T14:18:06.862Z,22.56
2018-07-10T14:20:47.838Z,22.32
2018-07-10T14:23:16.481Z,22.06
2018-07-10T14:25:45.623Z,21.99
2018-07-10T14:28:14.255Z,21.96
2018-07-10T14:33:30.545Z,21.79
2018-07-10T14:35:59.219Z,22.06
2018-07-10T14:38:30.024Z,22.12
2018-07-10T14:41:09.816Z,22.10
2018-07-10T14:43:43.869Z,22.00
2018-07-10T14:46:16.429Z,21.83
2018-07-10T14:48:58.550Z,21.90
2018-07-10T14:51:40.561Z,22.14
2018-07-10T14:54:11.570Z,22.12
2018-07-10T14:56:41.411Z,22.05
2018-07-10T14:59:10.766Z,22.06
2018-07-10T15:01:40.717Z,22.11
2018-07-10T15:04:09.655Z,22.07
2018-07-10T15:06:38.326Z,22.27
2018-07-10T15:09:09.582Z,22.49
2018-07-10T15:11:39.536Z,22.43
2018-07-10T15:14:09.297Z,22.34
2018-07-10T15:16:43.397Z,22.09
2018-07-10T15:19:12.094Z,21.84
2018-07-10T15:21:41.992Z,21.57
2018-07-10T15:24:10.857Z,21.31
2018-07-10T15:26:40.006Z,21.17
2018-07-10T15:29:08.880Z,21.19
2018-07-10T15:31:37.542Z,21.07
2018-07-10T15:34:06.083Z,20.81
2018-07-10T15:36:39.633Z,20.63
2018-07-10T15:39:08.353Z,20.45
2018-07-10T15:41:36.937Z,20.51
2018-07-10T15:44:05.837Z,20.43
2018-07-10T15:46:34.569Z,20.34
2018-07-10T15:49:03.320Z,20.43
2018-07-10T15:51:32.229Z,20.79
2018-07-10T15:54:00.793Z,21.00
2018-07-10T15:56:29.568Z,21.01
2018-07-10T15:58:58.096Z,21.15
2018-07-10T16:01:26.855Z,21.30
2018-07-10T16:03:55.845Z,21.37
2018-07-10T16:06:25.789Z,21.40
2018-07-10T16:09:05.114Z,21.60
2018-07-10T16:11:35.301Z,21.85
2018-07-10T16:14:04.497Z,21.96
2018-07-10T16:16:33.637Z,22.07
2018-07-10T16:19:07.692Z,22.06
2018-07-10T16:21:49.259Z,22.12
2018-07-10T16:24:19.548Z,21.99
2018-07-10T16:26:48.382Z,21.71
2018-07-10T16:31:50.187Z,21.35
2018-07-10T16:34:18.952Z,21.40
2018-07-10T16:36:47.563Z,21.34
2018-07-10T16:39:16.238Z,21.30
2018-07-10T16:41:50.494Z,21.35
2018-07-10T16:44:18.892Z,21.39
2018-07-10T16:46:57.961Z,21.38
2018-07-10T16:49:39.245Z,21.54
2018-07-10T16:53:20.597Z,21.62
2018-07-10T16:55:49.202Z,21.86
2018-07-10T16:58:17.836Z,21.97
2018-07-10T17:00:46.802Z,21.93
2018-07-10T17:03:16.011Z,22.04
2018-07-10T17:05:44.741Z,22.07
2018-07-10T17:08:13.103Z,21.73
2018-07-10T17:10:41.992Z,21.62
2018-07-10T17:13:10.645Z,21.54
2018-07-10T17:15:39.334Z,21.28
2018-07-10T17:18:08.275Z,21.33
2018-07-10T17:20:36.720Z,21.42
2018-07-10T17:23:05.428Z,21.44
2018-07-10T17:25:34.365Z,21.51
2018-07-10T17:28:03.221Z,21.34
2018-07-10T17:30:32.110Z,21.26
2018-07-10T17:33:00.804Z,21.39
2018-07-10T17:35:29.452Z,21.15
2018-07-10T17:37:58.187Z,21.14
2018-07-10T17:40:26.807Z,21.09
2018-07-10T17:42:55.475Z,21.04
2018-07-10T17:45:24.488Z,21.03
2018-07-10T17:47:53.348Z,21.11
2018-07-10T17:50:22.132Z,21.08
2018-07-10T17:52:50.957Z,21.03
2018-07-10T17:55:20.276Z,21.03
2018-07-10T17:57:55.614Z,21.09
2018-07-10T18:00:24.274Z,21.15
2018-07-10T18:02:52.895Z,21.14
2018-07-10T18:05:21.811Z,21.16
2018-07-10T18:07:50.248Z,21.25
2018-07-10T18:10:18.948Z,21.26
2018-07-10T18:12:47.677Z,21.31
2018-07-10T18:15:16.467Z,21.24
2018-07-10T18:17:45.108Z,21.10
2018-07-10T18:20:14.078Z,21.13
2018-07-10T18:22:42.938Z,21.04
2018-07-10T18:25:11.839Z,21.00
2018-07-10T18:27:40.798Z,20.90
2018-07-10T18:30:09.488Z,20.84
2018-07-10T18:32:38.178Z,20.86
2018-07-10T18:35:07.076Z,20.82
2018-07-10T18:37:36.022Z,20.78
2018-07-10T18:40:04.913Z,20.82
2018-07-10T18:42:33.960Z,20.86
2018-07-10T18:45:02.414Z,20.77
2018-07-10T18:47:31.031Z,20.63
2018-07-10T18:50:00.388Z,20.65
2018-07-10T18:52:30.559Z,20.65
2018-07-10T18:54:59.732Z,20.64
2018-07-10T18:58:09.954Z,20.66
2018-07-10T19:01:30.340Z,20.62
2018-07-10T19:04:01.936Z,20.60
2018-07-10T19:06:30.911Z,20.59
2018-07-10T19:08:59.683Z,20.55
2018-07-10T19:11:28.505Z,20.62
2018-07-10T19:14:01.490Z,20.55
2018-07-10T19:16:31.564Z,20.55
2018-07-10T19:19:04.236Z,20.49
2018-07-10T19:21:39.340Z,20.48
2018-07-10T19:24:15.161Z,20.48
2018-07-10T19:26:44.476Z,20.48
2018-07-10T19:29:48.147Z,20.43
2018-07-10T19:32:17.204Z,20.45
2018-07-10T19:34:51.109Z,20.37
2018-07-10T19:37:20.342Z,20.43
2018-07-10T19:39:49.344Z,20.40
2018-07-10T19:42:18.601Z,20.37
2018-07-10T19:44:47.352Z,20.30
2018-07-10T19:47:16.134Z,20.27
2018-07-10T19:49:48.469Z,20.24
2018-07-10T19:52:17.881Z,20.07
2018-07-10T19:54:46.756Z,19.98
2018-07-10T19:57:27.246Z,19.99
2018-07-10T19:59:55.935Z,19.85
2018-07-10T20:02:24.728Z,19.77
2018-07-10T20:05:06.381Z,19.71
2018-07-10T20:07:41.523Z,19.68
2018-07-10T20:10:16.377Z,19.56
2018-07-10T20:13:01.822Z,19.54
2018-07-10T20:16:43.057Z,19.51
2018-07-10T20:20:21.924Z,19.50
2018-07-10T20:24:07.147Z,19.47
2018-07-10T20:26:47.453Z,19.38
2018-07-10T20:30:02.309Z,19.42
2018-07-10T20:32:41.177Z,19.34
2018-07-10T20:35:19.897Z,19.34
2018-07-10T20:37:49.866Z,19.32
2018-07-10T20:40:38.600Z,19.33
2018-07-10T20:43:09.429Z,19.28
2018-07-10T20:45:44.615Z,19.26
2018-07-10T20:49:26.985Z,19.25
2018-07-10T20:52:06.063Z,19.21
2018-07-10T20:54:43.830Z,19.22
2018-07-10T20:57:22.272Z,19.20
2018-07-10T21:00:02.313Z,19.11
2018-07-10T21:05:10.797Z,19.13
2018-07-10T21:07:57.585Z,18.93
2018-07-10T21:10:42.627Z,18.86
2018-07-10T21:14:25.897Z,18.80
2018-07-10T21:17:05.055Z,18.70
2018-07-10T21:19:53.254Z,18.64
2018-07-10T21:24:46.145Z,18.52
2018-07-10T21:28:33.294Z,18.34
2018-07-10T21:31:20.801Z,18.32
2018-07-10T21:34:14.396Z,18.35
2018-07-10T21:36:50.642Z,18.34
2018-07-10T21:41:46.636Z,18.34
2018-07-10T21:45:37.452Z,18.26
2018-07-10T21:49:27.481Z,18.15
2018-07-10T21:51:56.223Z,18.10
2018-07-10T21:54:25.153Z,18.15
2018-07-10T21:56:53.885Z,18.07
2018-07-10T21:59:24.179Z,18.05
2018-07-10T22:01:59.605Z,18.09
2018-07-10T22:04:30.761Z,18.01
2018-07-10T22:07:01.481Z,18.02
2018-07-10T22:09:33.874Z,18.01
2018-07-10T22:12:06.351Z,17.92
2018-07-10T22:14:35.217Z,17.86
2018-07-10T22:17:07.782Z,17.83
2018-07-10T22:19:40.337Z,17.88
2018-07-10T22:22:09.191Z,17.79
2018-07-10T22:24:38.534Z,17.80
2018-07-10T22:27:07.476Z,17.79
2018-07-10T22:29:41.780Z,17.75
2018-07-10T22:32:16.062Z,17.69
2018-07-10T22:34:44.638Z,17.67
2018-07-10T22:37:14.068Z,17.70
2018-07-10T22:39:43.732Z,17.59
2018-07-10T22:42:12.143Z,17.55
2018-07-10T22:44:46.690Z,17.58
2018-07-10T22:47:18.812Z,17.61
2018-07-10T22:49:48.648Z,17.57
2018-07-10T22:52:17.947Z,17.54
2018-07-10T22:54:46.624Z,17.44
2018-07-10T22:57:15.589Z,17.44
2018-07-10T22:59:44.771Z,17.45
2018-07-10T23:02:13.640Z,17.40
2018-07-10T23:04:42.373Z,17.33
2018-07-10T23:07:16.869Z,17.30
2018-07-10T23:09:46.672Z,17.34
2018-07-10T23:12:15.456Z,17.27
2018-07-10T23:14:44.249Z,17.35
2018-07-10T23:17:13.101Z,17.23
2018-07-10T23:19:41.804Z,17.27
2018-07-10T23:22:10.418Z,17.23
2018-07-10T23:24:39.372Z,17.23
2018-07-10T23:27:08.151Z,17.22
2018-07-10T23:29:39.027Z,17.22
2018-07-10T23:32:08.607Z,17.14
2018-07-10T23:34:37.482Z,17.14
2018-07-10T23:37:12.870Z,17.15
2018-07-10T23:39:51.543Z,17.15
2018-07-10T23:42:29.362Z,17.07
2018-07-10T23:45:01.503Z,17.05
2018-07-10T23:47:32.301Z,16.98
2018-07-10T23:50:36.581Z,16.96
2018-07-10T23:53:21.633Z,16.87
2018-07-10T23:55:49.915Z,16.80
2018-07-10T23:58:18.828Z,16.76
